Time;durP1;ratioP1;P1;durP2;ratioP2;P2;SDS_P1;SDS_P2;PMS_P1;PMS_P2;Temp;Humidity;BMP_temperature;BMP_pressure;BME280_temperature;BME280_humidity;BME280_pressure;Samples;Min_cycle;Max_cycle;Signal;HPM_P1;HPM_P2
2022/12/18 00:00:04;;;;;;;2.10;2.00;;;;;;;-1.61;77.12;100596.37;4471049;32;35286;-72
2022/12/18 00:02:40;;;;;;;2.03;1.92;;;;;;;-1.50;76.03;100602.16;4458183;32;33497;-72
2022/12/18 00:05:08;;;;;;;3.72;3.40;;;;;;;-1.62;76.60;100614.19;4457261;32;34735;-72
2022/12/18 00:07:37;;;;;;;2.00;1.90;;;;;;;-1.41;75.74;100614.53;4471156;32;35058;-73
2022/12/18 00:10:05;;;;;;;3.22;3.00;;;;;;;-1.59;75.30;100624.56;4457149;32;34376;-72
2022/12/18 00:12:33;;;;;;;2.62;2.45;;;;;;;-1.53;75.93;100627.50;4471063;32;33416;-73
2022/12/18 00:15:01;;;;;;;1.58;1.50;;;;;;;-1.82;76.28;100634.31;4471053;32;34055;-72
2022/12/18 00:17:29;;;;;;;4.30;3.53;;;;;;;-1.45;75.97;100641.59;4471071;32;35977;-72
2022/12/18 00:19:57;;;;;;;1.12;1.10;;;;;;;-1.75;76.57;100644.13;4471011;32;34240;-72
2022/12/18 00:22:25;;;;;;;1.80;1.70;;;;;;;-1.63;76.68;100648.19;4471003;32;33599;-73
2022/12/18 00:24:53;;;;;;;1.37;1.37;;;;;;;-1.48;76.22;100653.28;4456897;32;34693;-72
2022/12/18 00:27:21;;;;;;;1.83;1.73;;;;;;;-1.81;77.09;100659.06;4470963;32;35039;-72
2022/12/18 00:29:49;;;;;;;5.37;5.03;;;;;;;-1.90;77.37;100661.06;4471000;32;35342;-72
2022/12/18 00:32:17;;;;;;;1.15;1.15;;;;;;;-1.57;76.86;100667.31;4470980;32;33398;-72
2022/12/18 00:34:46;;;;;;;0.90;0.90;;;;;;;-2.07;78.00;100674.47;4470848;32;33897;-72
2022/12/18 00:37:15;;;;;;;8.40;3.70;;;;;;;-2.05;78.14;100673.75;4470891;32;35966;-72
2022/12/18 00:39:50;;;;;;;0.95;0.95;;;;;;;-1.58;76.43;100672.31;4471092;32;34429;-72
2022/12/18 00:45:06;;;;;;;6.62;3.72;;;;;;;-1.84;76.70;100676.75;4459136;32;34026;-72
2022/12/18 00:47:39;;;;;;;1.55;1.45;;;;;;;-1.74;76.62;100671.41;4470917;32;35023;-72
2022/12/18 00:50:09;;;;;;;1.10;1.10;;;;;;;-1.60;75.84;100673.91;4470841;32;34413;-72
2022/12/18 00:52:40;;;;;;;2.83;2.67;;;;;;;-1.80;76.43;100681.25;4456972;32;33426;-72
2022/12/18 00:55:08;;;;;;;1.10;1.10;;;;;;;-1.85;76.66;100685.19;4456824;32;34033;-72
2022/12/18 00:57:36;;;;;;;2.08;1.98;;;;;;;-1.89;76.63;100680.69;4470690;32;35003;-72
2022/12/18 01:00:05;;;;;;;1.85;1.75;;;;;;;-2.04;77.91;100689.97;4457012;32;35191;-73
2022/12/18 01:02:34;;;;;;;3.15;2.95;;;;;;;-1.90;77.12;100684.03;4470767;32;33426;-72
2022/12/18 01:05:03;;;;;;;3.78;3.53;;;;;;;-1.93;77.23;100683.84;4470716;32;33914;-72
2022/12/18 01:07:31;;;;;;;15.30;3.65;;;;;;;-1.37;75.35;100686.34;4470675;32;35770;-72
2022/12/18 01:09:59;;;;;;;2.00;1.90;;;;;;;-1.76;76.72;100688.31;4470597;32;34559;-72
2022/12/18 01:12:27;;;;;;;1.60;1.50;;;;;;;-1.64;76.03;100687.25;4470711;32;33863;-72
2022/12/18 01:14:55;;;;;;;4.78;4.10;;;;;;;-1.87;76.61;100691.91;4456631;32;33665;-72
2022/12/18 01:17:23;;;;;;;1.95;1.85;;;;;;;-1.71;76.79;100698.81;4456484;32;35131;-72
2022/12/18 01:19:51;;;;;;;3.30;3.08;;;;;;;-1.78;77.47;100692.44;4456040;32;33709;-72
2022/12/18 01:22:19;;;;;;;3.05;2.83;;;;;;;-1.80;76.97;100700.78;4456733;32;34249;-72
2022/12/18 01:24:47;;;;;;;2.62;2.42;;;;;;;-1.88;77.12;100696.91;4456640;32;34700;-72
2022/12/18 01:27:15;;;;;;;3.12;2.87;;;;;;;-1.78;76.88;100704.34;4456589;32;35629;-72
2022/12/18 01:29:43;;;;;;;2.80;2.60;;;;;;;-2.05;77.65;100709.50;4470499;32;34601;-72
2022/12/18 01:32:11;;;;;;;1.75;1.65;;;;;;;-1.76;76.76;100712.97;4456615;32;33620;-72
2022/12/18 01:34:39;;;;;;;1.75;1.65;;;;;;;-1.84;77.11;100715.03;4470506;32;34191;-72
2022/12/18 01:37:07;;;;;;;6.45;4.12;;;;;;;-1.92;77.30;100722.22;4470775;32;36052;-72
2022/12/18 01:39:35;;;;;;;1.50;1.40;;;;;;;-1.87;76.95;100722.53;4456066;32;34326;-72
2022/12/18 01:42:05;;;;;;;1.50;1.42;;;;;;;-1.87;77.46;100719.97;4470523;32;33693;-73
2022/12/18 01:45:01;;;;;;;1.25;1.25;;;;;;;-1.78;76.96;100725.63;4443460;32;33512;-72
2022/12/18 01:47:43;;;;;;;3.55;2.55;;;;;;;-1.55;75.79;100734.69;4470492;32;35925;-72
2022/12/18 01:50:15;;;;;;;3.03;2.83;;;;;;;-1.62;76.34;100736.78;4470558;32;35255;-72
2022/12/18 01:52:46;;;;;;;8.50;2.12;;;;;;;-1.22;75.10;100736.59;4470776;32;33572;-72
2022/12/18 01:55:17;;;;;;;1.00;1.00;;;;;;;-1.20;74.16;100742.69;4456462;32;33993;-73
2022/12/18 01:57:46;;;;;;;1.35;1.25;;;;;;;-1.67;76.04;100740.72;4456486;32;34972;-72
2022/12/18 02:00:20;;;;;;;6.03;4.10;;;;;;;-1.72;75.78;100746.41;4470556;32;32977;-72
2022/12/18 02:02:48;;;;;;;7.10;3.87;;;;;;;-1.54;75.03;100743.22;4456583;32;33693;-72
2022/12/18 02:05:19;;;;;;;0.90;0.90;;;;;;;-1.68;75.22;100749.16;4470315;32;34680;-72
2022/12/18 02:08:11;;;;;;;1.40;1.35;;;;;;;-1.70;75.42;100748.19;4456332;32;35042;-72
2022/12/18 02:10:56;;;;;;;2.20;2.10;;;;;;;-1.82;76.21;100748.31;4470623;32;34466;-72
2022/12/18 02:13:46;;;;;;;1.30;1.30;;;;;;;-1.61;75.03;100749.63;4470317;32;34043;-72
2022/12/18 02:16:38;;;;;;;9.38;3.87;;;;;;;-1.80;75.33;100757.84;4456411;32;34905;-72
2022/12/18 02:19:21;;;;;;;2.95;2.75;;;;;;;-1.84;75.78;100755.87;4470447;32;34880;-72
2022/12/18 02:22:25;;;;;;;2.47;2.30;;;;;;;-2.06;77.03;100752.81;4470347;32;35182;-72
2022/12/18 02:24:59;;;;;;;1.67;1.60;;;;;;;-1.75;76.03;100745.34;4469938;32;34332;-72
2022/12/18 02:27:30;;;;;;;1.60;1.50;;;;;;;-1.70;75.98;100759.28;4470107;32;34707;-72
2022/12/18 02:30:00;;;;;;;1.40;1.40;;;;;;;-2.04;76.70;100757.22;4470100;32;34250;-72
2022/12/18 02:32:35;;;;;;;1.42;1.37;;;;;;;-1.99;76.87;100765.16;4456439;32;33814;-72
2022/12/18 02:35:06;;;;;;;1.77;1.67;;;;;;;-1.70;76.51;100771.19;4456502;32;33321;-72
2022/12/18 02:37:35;;;;;;;2.92;2.78;;;;;;;-1.70;74.77;100766.06;4443138;32;32484;-72
2022/12/18 02:40:04;;;;;;;2.33;2.22;;;;;;;-2.07;76.12;100774.00;4469933;32;35880;-72
2022/12/18 02:42:33;;;;;;;3.08;2.58;;;;;;;-2.12;76.85;100774.59;4456386;32;35259;-72
2022/12/18 02:45:01;;;;;;;1.85;1.75;;;;;;;-1.74;75.41;100778.66;4456379;32;33520;-72
2022/12/18 02:47:37;;;;;;;1.15;1.15;;;;;;;-1.80;76.31;100783.38;4456386;32;34934;-72
2022/12/18 02:50:19;;;;;;;4.03;2.10;;;;;;;-2.09;76.93;100784.09;4468919;32;35061;-72
2022/12/18 02:53:06;;;;;;;2.37;1.90;;;;;;;-1.74;75.67;100783.75;4455998;32;34847;-72
2022/12/18 02:55:56;;;;;;;2.30;2.20;;;;;;;-1.68;74.96;100782.37;4469874;32;33643;-72
2022/12/18 02:58:36;;;;;;;2.90;2.00;;;;;;;-1.87;75.15;100786.34;4469856;32;33723;-72
2022/12/18 03:01:15;;;;;;;3.03;2.83;;;;;;;-1.54;74.06;100784.97;4455880;32;34930;-72
2022/12/18 03:03:50;;;;;;;1.60;1.55;;;;;;;-1.86;74.31;100798.31;4456019;32;34704;-72
2022/12/18 03:06:24;;;;;;;1.17;1.17;;;;;;;-1.44;73.23;100798.31;4456008;32;33218;-72
2022/12/18 03:08:57;;;;;;;1.25;1.15;;;;;;;-1.67;73.80;100802.03;4469695;32;34024;-72
2022/12/18 03:14:17;;;;;;;4.53;4.15;;;;;;;-1.59;73.82;100808.47;4457863;32;35152;-72
2022/12/18 03:16:49;;;;;;;4.25;3.95;;;;;;;-1.70;73.64;100802.69;4455915;32;32635;-72
2022/12/18 03:19:22;;;;;;;1.62;1.52;;;;;;;-1.64;73.39;100815.88;4455650;32;34714;-72
2022/12/18 03:21:56;;;;;;;3.53;2.03;;;;;;;-1.73;73.68;100815.28;4443230;32;35019;-72
2022/12/18 03:24:26;;;;;;;3.70;2.17;;;;;;;-1.68;73.49;100813.88;4455600;32;35281;-72
2022/12/18 03:26:59;;;;;;;6.53;6.10;;;;;;;-1.62;73.40;100815.97;4455496;32;33439;-72
2022/12/18 03:29:34;;;;;;;1.75;1.65;;;;;;;-1.57;73.41;100822.22;4469686;32;34848;-72
2022/12/18 03:32:08;;;;;;;2.15;2.05;;;;;;;-1.48;72.29;100822.81;4455765;32;35798;-72
2022/12/18 03:34:39;;;;;;;0.93;0.93;;;;;;;-1.30;71.22;100829.81;4455647;32;34587;-72
2022/12/18 03:37:08;;;;;;;2.00;1.90;;;;;;;-1.85;73.30;100833.28;4455570;32;33475;-72
2022/12/18 03:39:36;;;;;;;1.55;1.48;;;;;;;-1.54;71.94;100837.72;4442805;32;34764;-72
2022/12/18 03:42:12;;;;;;;0.95;0.95;;;;;;;-1.91;73.32;100848.19;4469133;32;34922;-72
2022/12/18 03:44:45;;;;;;;3.35;3.15;;;;;;;-1.35;71.40;100840.63;4469077;32;34496;-72
2022/12/18 03:47:28;;;;;;;3.20;2.95;;;;;;;-1.64;71.63;100845.59;4455537;32;33593;-72
2022/12/18 03:50:01;;;;;;;1.58;1.48;;;;;;;-1.44;71.53;100852.84;4469226;32;33979;-72
2022/12/18 03:52:35;;;;;;;2.50;2.35;;;;;;;-1.92;73.10;100851.56;4469370;32;36107;-73
2022/12/18 03:55:05;;;;;;;2.55;2.35;;;;;;;-1.46;72.00;100856.09;4442749;32;34549;-72
2022/12/18 03:57:34;;;;;;;2.15;2.00;;;;;;;-1.61;71.69;100850.91;4469066;32;32502;-72
2022/12/18 04:00:13;;;;;;;0.95;0.95;;;;;;;-2.11;73.25;100854.59;4455346;32;34632;-72
2022/12/18 04:02:52;;;;;;;2.12;2.03;;;;;;;-1.96;72.91;100852.12;4458230;32;34919;-72
2022/12/18 04:05:22;;;;;;;1.25;1.17;;;;;;;-2.35;74.70;100856.41;4457478;32;34452;-72
2022/12/18 04:07:52;;;;;;;0.95;0.95;;;;;;;-2.18;74.73;100860.09;4457396;32;33512;-72
2022/12/18 04:10:19;;;;;;;1.58;1.52;;;;;;;-2.33;74.83;100857.41;4471067;32;33919;-72
2022/12/18 04:12:48;;;;;;;5.90;2.12;;;;;;;-2.18;74.37;100868.59;4471349;32;35167;-72
2022/12/18 04:15:16;;;;;;;1.17;1.17;;;;;;;-2.25;73.96;100863.91;4457394;32;34603;-72
2022/12/18 04:17:49;;;;;;;2.50;2.37;;;;;;;-1.95;73.39;100870.09;4470953;32;33431;-72
2022/12/18 04:20:18;;;;;;;2.30;1.95;;;;;;;-2.20;73.54;100862.53;4457449;32;34617;-72
2022/12/18 04:22:46;;;;;;;2.03;1.92;;;;;;;-1.85;72.73;100865.56;4444119;32;33327;-72
2022/12/18 04:25:14;;;;;;;2.70;2.50;;;;;;;-1.87;71.92;100857.84;4471082;32;34629;-72
2022/12/18 04:27:44;;;;;;;0.90;0.90;;;;;;;-1.70;71.63;100860.56;4444875;32;32618;-72
2022/12/18 04:30:12;;;;;;;2.25;2.00;;;;;;;-2.22;72.88;100869.22;4456844;32;32228;-72
2022/12/18 04:32:41;;;;;;;1.87;1.77;;;;;;;-1.59;71.66;100870.66;4457142;32;35921;-72
2022/12/18 04:35:16;;;;;;;2.72;2.55;;;;;;;-2.11;72.27;100872.44;4471218;32;34580;-72
2022/12/18 04:37:44;;;;;;;2.17;2.08;;;;;;;-2.07;72.91;100876.09;4470844;32;33517;-72
2022/12/18 04:40:12;;;;;;;1.20;1.20;;;;;;;-2.00;73.26;100870.59;4470869;32;33971;-72
2022/12/18 04:42:41;;;;;;;1.00;1.00;;;;;;;-2.07;73.40;100883.75;4471121;32;35073;-72
2022/12/18 04:45:09;;;;;;;2.28;2.10;;;;;;;-2.13;72.95;100880.00;4470899;32;34636;-72
2022/12/18 04:47:37;;;;;;;1.27;1.27;;;;;;;-2.33;73.64;100898.22;4470819;32;33528;-72
2022/12/18 04:50:06;;;;;;;9.45;3.17;;;;;;;-2.68;73.96;100896.78;4470820;32;34028;-72
2022/12/18 04:52:33;;;;;;;4.47;4.10;;;;;;;-2.11;72.21;100903.06;4456827;32;34889;-72
2022/12/18 04:55:01;;;;;;;2.17;1.80;;;;;;;-2.51;73.15;100906.41;4470996;32;35119;-72
2022/12/18 04:57:29;;;;;;;11.35;3.35;;;;;;;-2.24;72.51;100911.59;4470794;32;33364;-72
2022/12/18 04:59:57;;;;;;;1.10;1.10;;;;;;;-2.54;73.21;100911.34;4470790;32;33912;-73
2022/12/18 05:02:25;;;;;;;2.30;2.20;;;;;;;-2.54;73.57;100916.44;4470788;32;35860;-73
2022/12/18 05:04:54;;;;;;;2.20;2.10;;;;;;;-2.01;71.49;100920.75;4470763;32;34428;-73
2022/12/18 05:07:22;;;;;;;1.48;1.37;;;;;;;-2.49;72.86;100921.81;4470736;32;33429;-73
2022/12/18 05:09:50;;;;;;;1.25;1.25;;;;;;;-2.34;72.21;100930.50;4456726;32;32339;-73
2022/12/18 05:12:18;;;;;;;4.32;4.00;;;;;;;-2.08;72.30;100923.69;4456355;32;33970;-73
2022/12/18 05:14:46;;;;;;;1.48;1.45;;;;;;;-1.97;71.92;100925.28;4456452;32;34373;-72
2022/12/18 05:17:13;;;;;;;5.95;3.75;;;;;;;-2.24;72.21;100926.91;4470616;32;34078;-73
2022/12/18 05:19:42;;;;;;;2.55;2.37;;;;;;;-2.32;72.68;100922.97;4470602;32;33480;-72
2022/12/18 05:22:10;;;;;;;5.40;4.40;;;;;;;-2.11;71.54;100929.47;4456765;32;34508;-73
2022/12/18 05:24:38;;;;;;;11.52;2.12;;;;;;;-2.00;71.78;100925.06;4470434;32;34377;-73
2022/12/18 05:27:06;;;;;;;1.52;1.42;;;;;;;-2.32;72.42;100928.94;4443766;32;33912;-73
2022/12/18 05:29:34;;;;;;;1.30;1.30;;;;;;;-2.46;73.08;100936.47;4456332;32;32549;-73
2022/12/18 05:32:02;;;;;;;4.65;4.20;;;;;;;-2.63;73.13;100936.22;4456676;32;35141;-73
2022/12/18 05:34:30;;;;;;;2.10;2.00;;;;;;;-2.88;74.24;100944.75;4470526;32;34505;-73
2022/12/18 05:36:58;;;;;;;6.10;2.83;;;;;;;-2.65;73.85;100939.44;4456657;32;34273;-73
2022/12/18 05:39:26;;;;;;;3.42;2.53;;;;;;;-2.73;74.45;100946.56;4456571;32;33987;-73
2022/12/18 05:41:54;;;;;;;3.80;3.15;;;;;;;-2.38;71.94;100948.03;4456623;32;35095;-73
2022/12/18 05:44:22;;;;;;;0.90;0.90;;;;;;;-2.99;73.03;100950.75;4456615;32;34340;-73
2022/12/18 05:46:50;;;;;;;2.90;1.95;;;;;;;-2.70;73.11;100949.31;4470410;32;33712;-73
2022/12/18 05:49:18;;;;;;;2.35;2.17;;;;;;;-2.83;73.30;100957.78;4443649;32;33101;-73
2022/12/18 05:51:46;;;;;;;2.47;2.08;;;;;;;-2.83;74.04;100962.00;4456377;32;35164;-73
2022/12/18 05:54:14;;;;;;;3.40;2.72;;;;;;;-2.42;73.04;100962.25;4470371;32;34393;-73
2022/12/18 05:56:42;;;;;;;4.43;3.90;;;;;;;-2.63;73.64;100968.47;4470461;32;34277;-73
2022/12/18 05:59:15;;;;;;;3.50;3.20;;;;;;;-2.88;74.36;100962.59;4443852;32;32440;-73
2022/12/18 06:01:43;;;;;;;4.53;2.50;;;;;;;-2.92;74.78;100968.22;4470227;32;35849;-73
2022/12/18 06:04:12;;;;;;;2.50;2.40;;;;;;;-2.51;73.10;100966.75;4470454;32;34426;-73
2022/12/18 06:06:40;;;;;;;3.33;2.10;;;;;;;-2.71;73.23;100962.84;4443573;32;33763;-73
2022/12/18 06:09:09;;;;;;;2.15;2.05;;;;;;;-2.91;73.75;100972.56;4470204;32;34833;-73
2022/12/18 06:11:38;;;;;;;1.00;1.00;;;;;;;-3.06;73.42;100964.72;4470249;32;35103;-73
2022/12/18 06:14:06;;;;;;;2.28;2.17;;;;;;;-3.12;74.08;100971.94;4470275;32;35320;-73
2022/12/18 06:16:34;;;;;;;6.07;3.45;;;;;;;-3.21;72.76;100980.59;4470248;32;34403;-73
2022/12/18 06:19:04;;;;;;;3.67;3.33;;;;;;;-2.83;71.45;100982.41;4467021;32;34749;-73
2022/12/18 06:21:32;;;;;;;1.10;1.10;;;;;;;-3.29;73.09;100980.94;4459468;32;35189;-72
2022/12/18 06:24:01;;;;;;;2.47;2.35;;;;;;;-3.25;73.12;100985.50;4452606;32;35188;-72
2022/12/18 06:26:30;;;;;;;5.68;2.15;;;;;;;-3.26;72.27;100983.72;4455823;32;33330;-72
2022/12/18 06:28:58;;;;;;;2.58;2.37;;;;;;;-3.75;73.91;100985.25;4456542;32;33937;-72
2022/12/18 06:31:26;;;;;;;1.55;1.48;;;;;;;-3.36;74.76;100995.69;4465511;32;35100;-73
2022/12/18 06:33:56;;;;;;;4.35;4.03;;;;;;;-2.92;74.42;100997.94;4461034;32;34072;-72
2022/12/18 06:36:24;;;;;;;1.85;1.75;;;;;;;-2.86;75.00;101003.44;4459236;32;34301;-72
2022/12/18 06:38:51;;;;;;;1.25;1.23;;;;;;;-2.44;74.40;101006.31;4466507;32;33924;-72
2022/12/18 06:41:21;;;;;;;1.98;1.87;;;;;;;-2.52;75.23;101011.78;4457499;32;36549;-72
2022/12/18 06:43:49;;;;;;;2.75;2.55;;;;;;;-2.63;74.83;101015.28;4455161;32;35207;-73
2022/12/18 06:46:17;;;;;;;2.65;2.55;;;;;;;-2.33;74.89;101018.12;4455428;32;33390;-71
2022/12/18 06:48:49;;;;;;;5.85;4.35;;;;;;;-2.27;74.17;101021.09;4456721;32;34778;-72
2022/12/18 06:51:19;;;;;;;3.17;2.92;;;;;;;-2.69;74.63;101022.47;4452214;32;34880;-73
2022/12/18 06:53:48;;;;;;;2.28;2.17;;;;;;;-2.25;73.40;101021.22;4446327;32;35758;-72
2022/12/18 06:56:16;;;;;;;1.73;1.62;;;;;;;-2.22;73.07;101024.84;4449113;32;33575;-72
2022/12/18 06:58:44;;;;;;;0.93;0.93;;;;;;;-1.96;71.58;101035.91;4469294;32;34768;-72
2022/12/18 07:01:13;;;;;;;0.80;0.80;;;;;;;-2.49;72.95;101031.50;4456372;32;35676;-72
2022/12/18 07:03:42;;;;;;;1.90;1.80;;;;;;;-2.39;73.40;101040.69;4463525;32;35181;-72
2022/12/18 07:06:19;;;;;;;2.90;2.70;;;;;;;-2.64;75.40;101044.09;4455197;32;34404;-72
2022/12/18 07:08:48;;;;;;;1.90;1.80;;;;;;;-1.74;74.51;101045.91;4455263;32;34777;-73
2022/12/18 07:11:17;;;;;;;0.80;0.80;;;;;;;-1.57;71.82;101046.97;4454893;32;34925;-73
2022/12/18 07:13:47;;;;;;;2.00;1.90;;;;;;;-0.83;69.84;101046.59;4469060;32;34588;-72
2022/12/18 07:16:18;;;;;;;3.62;1.85;;;;;;;-1.32;69.59;101054.59;4459299;32;33300;-73
2022/12/18 07:18:52;;;;;;;0.83;0.83;;;;;;;-0.99;68.05;101055.88;4455310;32;34799;-72
2022/12/18 07:21:21;;;;;;;0.80;0.80;;;;;;;-0.91;68.02;101066.56;4456933;32;35332;-72
2022/12/18 07:23:49;;;;;;;2.03;1.73;;;;;;;-1.81;71.78;101067.59;4454930;32;35203;-72
2022/12/18 07:26:19;;;;;;;2.70;2.22;;;;;;;-2.13;73.12;101073.97;4463721;32;32482;-73
2022/12/18 07:28:48;;;;;;;4.72;4.28;;;;;;;-1.06;70.04;101078.38;4455466;32;33002;-74
2022/12/18 07:31:21;;;;;;;2.70;2.50;;;;;;;-0.70;69.13;101084.94;4469334;32;35119;-73
2022/12/18 07:33:51;;;;;;;2.75;2.62;;;;;;;-0.30;67.46;101092.53;4455366;32;34401;-74
2022/12/18 07:36:22;;;;;;;1.77;1.67;;;;;;;-0.14;67.53;101088.31;4441810;32;33011;-74
2022/12/18 07:38:52;;;;;;;1.02;1.02;;;;;;;0.31;66.57;101089.31;4471319;32;34062;-73
2022/12/18 07:41:20;;;;;;;1.12;1.12;;;;;;;0.57;65.07;101099.38;4457485;32;35074;-74
2022/12/18 07:43:48;;;;;;;1.33;1.33;;;;;;;0.64;66.20;101099.75;4453934;32;34606;-71
2022/12/18 07:46:17;;;;;;;1.85;1.75;;;;;;;1.12;64.37;101091.37;4467796;32;33446;-71
2022/12/18 07:48:45;;;;;;;2.30;2.20;;;;;;;0.44;66.64;101109.75;4456360;32;34012;-73
2022/12/18 07:51:18;;;;;;;1.50;1.40;;;;;;;0.88;65.03;101103.72;4470822;32;36039;-73
2022/12/18 07:53:46;;;;;;;8.07;4.32;;;;;;;1.40;63.50;101102.28;4460985;32;34505;-72
2022/12/18 07:56:20;;;;;;;2.35;2.25;;;;;;;2.25;60.31;101115.34;4468136;32;34544;-73
2022/12/18 07:58:58;;;;;;;1.58;1.52;;;;;;;1.68;61.95;101118.37;4471044;32;34625;-73
2022/12/18 08:01:27;;;;;;;1.40;1.35;;;;;;;2.64;59.89;101123.31;4457361;32;35027;-73
2022/12/18 08:03:57;;;;;;;2.08;1.98;;;;;;;2.51;59.47;101124.38;4470671;32;35132;-72
2022/12/18 08:06:25;;;;;;;5.68;2.35;;;;;;;2.81;57.95;101131.87;4470078;32;33477;-72
2022/12/18 08:08:54;;;;;;;3.25;2.45;;;;;;;2.93;58.22;101140.19;4471493;32;34673;-73
2022/12/18 08:11:24;;;;;;;0.90;0.90;;;;;;;3.24;56.43;101141.66;4471029;32;35846;-73
2022/12/18 08:13:52;;;;;;;3.72;1.77;;;;;;;2.66;57.91;101142.25;4471136;32;34464;-73
2022/12/18 08:16:21;;;;;;;1.08;1.08;;;;;;;2.22;58.32;101140.88;4457130;32;34362;-72
2022/12/18 08:18:51;;;;;;;1.20;1.20;;;;;;;2.32;58.98;101143.13;4457087;32;34801;-73
2022/12/18 08:21:27;;;;;;;1.00;1.00;;;;;;;2.08;59.18;101143.62;4457106;32;34899;-72
2022/12/18 08:23:58;;;;;;;1.00;1.00;;;;;;;2.20;59.52;101153.62;4456705;32;33693;-72
2022/12/18 08:26:28;;;;;;;2.33;2.12;;;;;;;0.94;62.54;101155.34;4457144;32;33387;-73
2022/12/18 08:28:58;;;;;;;2.72;2.58;;;;;;;1.54;62.48;101155.25;4471088;32;34135;-73
2022/12/18 08:31:27;;;;;;;2.67;2.55;;;;;;;2.42;60.04;101159.91;4457087;32;34951;-72
2022/12/18 08:33:57;;;;;;;1.40;1.30;;;;;;;2.33;59.30;101155.19;4457241;32;33743;-73
2022/12/18 08:36:25;;;;;;;5.93;2.55;;;;;;;2.64;59.32;101156.72;4470834;32;33934;-72
2022/12/18 08:38:53;;;;;;;1.70;1.60;;;;;;;2.91;58.57;101164.06;4456943;32;33868;-72
2022/12/18 08:41:22;;;;;;;0.80;0.80;;;;;;;3.19;56.68;101166.28;4457238;32;35214;-73
2022/12/18 08:46:39;;;;;;;1.40;1.37;;;;;;;4.82;53.13;101159.84;4470956;32;33632;-73
2022/12/18 08:49:08;;;;;;;2.47;2.28;;;;;;;4.46;53.35;101152.34;4455954;32;33502;-74
2022/12/18 08:51:37;;;;;;;1.05;1.05;;;;;;;5.82;50.88;101161.25;4456949;32;35478;-73
2022/12/18 08:54:06;;;;;;;1.62;1.52;;;;;;;6.95;47.54;101158.38;4456894;32;34548;-72
2022/12/18 08:56:34;;;;;;;2.53;2.35;;;;;;;7.47;45.33;101157.47;4456868;32;33527;-72
2022/12/18 08:59:04;;;;;;;4.05;2.22;;;;;;;8.10;44.20;101156.78;4456782;32;33896;-72
2022/12/18 09:01:32;;;;;;;3.67;3.35;;;;;;;8.09;43.00;101157.59;4456479;32;33666;-72
2022/12/18 09:04:01;;;;;;;2.87;2.60;;;;;;;8.89;40.85;101161.50;4470727;32;34523;-73
2022/12/18 09:06:29;;;;;;;1.05;1.00;;;;;;;8.27;41.46;101172.81;4456598;32;32102;-73
2022/12/18 09:08:57;;;;;;;3.35;1.77;;;;;;;8.04;42.33;101174.75;4470659;32;33873;-73
2022/12/18 09:11:27;;;;;;;3.75;1.45;;;;;;;7.69;43.07;101179.75;4456924;32;35207;-73
2022/12/18 09:13:56;;;;;;;4.47;2.85;;;;;;;5.83;47.33;101181.12;4456706;32;34637;-73
2022/12/18 09:16:27;;;;;;;1.35;1.27;;;;;;;6.17;46.61;101185.00;4456746;32;33389;-73
2022/12/18 09:19:00;;;;;;;2.45;1.45;;;;;;;6.56;46.30;101180.38;4457274;32;34025;-73
2022/12/18 09:21:32;;;;;;;3.83;3.50;;;;;;;8.06;43.65;101180.84;4470550;32;35912;-74
2022/12/18 09:24:04;;;;;;;10.40;5.87;;;;;;;8.24;42.12;101177.03;4470518;32;34463;-73
2022/12/18 09:26:36;;;;;;;4.32;3.03;;;;;;;7.07;43.95;101179.50;4470637;32;33296;-73
2022/12/18 09:29:07;;;;;;;1.00;1.00;;;;;;;6.21;46.05;101174.84;4456859;32;34003;-73
2022/12/18 09:31:35;;;;;;;3.53;2.50;;;;;;;5.45;47.25;101178.81;4456841;32;35915;-73
2022/12/18 09:34:06;;;;;;;1.85;1.77;;;;;;;6.30;45.97;101182.06;4456507;32;33565;-73
2022/12/18 09:36:35;;;;;;;5.62;2.80;;;;;;;5.12;48.96;101174.06;4470642;32;34344;-73
2022/12/18 09:39:03;;;;;;;6.80;3.90;;;;;;;6.13;46.92;101173.66;4456562;32;34593;-73
2022/12/18 09:41:53;;;;;;;1.58;1.50;;;;;;;4.83;50.13;101183.16;4470667;32;35917;-73
2022/12/18 09:44:21;;;;;;;1.83;1.73;;;;;;;5.43;49.11;101177.84;4456928;32;35174;-73
2022/12/18 09:46:58;;;;;;;3.12;2.92;;;;;;;6.71;46.44;101180.03;4456293;32;31939;-73
2022/12/18 09:49:30;;;;;;;0.65;0.65;;;;;;;7.59;44.54;101170.81;4470450;32;33913;-73
2022/12/18 09:52:35;;;;;;;1.42;1.33;;;;;;;8.94;41.48;101183.28;4470461;32;35870;-73
2022/12/18 09:55:24;;;;;;;5.12;2.97;;;;;;;10.65;38.96;101173.19;4470407;32;34062;-74
2022/12/18 09:57:57;;;;;;;2.78;2.58;;;;;;;10.62;36.18;101174.88;4456516;32;33500;-73
2022/12/18 10:00:25;;;;;;;3.83;3.53;;;;;;;11.32;36.25;101173.44;4455900;32;33933;-73
2022/12/18 10:03:00;;;;;;;4.20;3.80;;;;;;;11.83;35.62;101172.47;4443477;32;34253;-73
2022/12/18 10:05:37;;;;;;;7.85;2.78;;;;;;;12.12;34.25;101170.28;4443599;32;32907;-73
2022/12/18 10:08:30;;;;;;;5.78;4.10;;;;;;;12.55;33.95;101184.66;4470424;32;33373;-74
2022/12/18 10:11:04;;;;;;;18.62;3.65;;;;;;;13.76;32.34;101175.22;4470360;32;34762;-73
2022/12/18 10:13:41;;;;;;;5.35;4.75;;;;;;;13.43;32.20;101168.94;4456344;32;35517;-74
2022/12/18 10:16:32;;;;;;;5.00;3.62;;;;;;;13.83;31.23;101177.00;4470398;32;35240;-73
2022/12/18 10:19:09;;;;;;;5.18;4.70;;;;;;;11.58;33.91;101185.16;4470113;32;33453;-73
2022/12/18 10:21:39;;;;;;;;;;;;;;;14.24;31.19;101178.06;4470554;32;33890;-74
2022/12/18 10:24:32;;;;;;;4.00;3.60;;;;;;;14.13;31.25;101178.03;4456175;32;35261;-73
2022/12/18 10:27:12;;;;;;;5.18;4.37;;;;;;;13.22;32.11;101174.84;4470136;32;34352;-74
2022/12/18 10:29:42;;;;;;;2.20;2.00;;;;;;;11.86;34.10;101176.81;4456229;32;34530;-74
2022/12/18 10:32:22;;;;;;;5.55;3.37;;;;;;;13.08;32.74;101164.28;4456378;32;33164;-74
2022/12/18 10:34:53;;;;;;;2.30;2.08;;;;;;;12.37;33.22;101175.78;4456138;32;35731;-73
2022/12/18 10:37:28;;;;;;;;;;;;;;;12.85;32.36;101168.44;4457157;32;34640;-73
2022/12/18 10:40:12;;;;;;;4.43;3.60;;;;;;;12.87;32.16;101172.81;4469957;32;33373;-74
2022/12/18 10:43:12;;;;;;;6.90;4.55;;;;;;;13.81;30.19;101170.03;4457052;32;33942;-74
2022/12/18 10:45:41;;;;;;;2.28;2.15;;;;;;;13.76;30.54;101172.63;4469892;32;35554;-73
2022/12/18 10:48:20;;;;;;;11.63;5.78;;;;;;;14.30;30.01;101174.62;4455965;32;34429;-73
2022/12/18 10:50:50;;;;;;;4.18;3.42;;;;;;;13.91;29.76;101173.59;4469939;32;34246;-74
2022/12/18 10:53:40;;;;;;;3.47;2.83;;;;;;;13.53;31.38;101175.09;4458295;32;34760;-74
2022/12/18 10:56:08;;;;;;;2.28;1.83;;;;;;;11.99;32.93;101178.78;4441552;32;33330;-73
2022/12/18 10:58:38;;;;;;;2.50;2.30;;;;;;;13.88;31.51;101181.41;4469247;32;34125;-73
2022/12/18 11:01:15;;;;;;;15.98;5.40;;;;;;;13.22;32.31;101173.97;4455939;32;34322;-73
2022/12/18 11:03:49;;;;;;;2.08;1.73;;;;;;;14.09;30.42;101178.91;4469735;32;34849;-74
2022/12/18 11:06:24;;;;;;;3.12;2.85;;;;;;;12.55;32.98;101168.97;4469700;32;35297;-74
2022/12/18 11:09:20;;;;;;;3.87;3.53;;;;;;;12.78;32.51;101156.16;4469969;32;35114;-74
2022/12/18 11:11:54;;;;;;;8.67;4.87;;;;;;;13.73;31.22;101153.41;4470721;32;33403;-74
2022/12/18 11:14:32;;;;;;;2.47;1.48;;;;;;;14.74;29.37;101151.16;4471629;32;34760;-74
2022/12/18 11:17:00;;;;;;;1.87;1.77;;;;;;;12.18;34.12;101153.78;4471585;32;36001;-74
2022/12/18 11:19:57;;;;;;;2.45;2.25;;;;;;;11.77;34.69;101154.12;4459878;32;34492;-73
2022/12/18 11:22:27;;;;;;;7.32;3.17;;;;;;;12.93;33.00;101158.91;4457653;32;34399;-73
2022/12/18 11:25:05;;;;;;;3.67;2.60;;;;;;;13.16;32.15;101155.59;4457383;32;33098;-74
2022/12/18 11:28:22;;;;;;;3.28;2.83;;;;;;;12.68;32.68;101156.06;4459803;32;35959;-74
2022/12/18 11:31:27;;;;;;;2.65;2.45;;;;;;;12.02;32.62;101147.50;4471410;32;34633;-74
2022/12/18 11:34:11;;;;;;;4.45;3.03;;;;;;;14.39;29.89;101140.56;4457625;32;33485;-73
2022/12/18 11:36:58;;;;;;;3.30;2.97;;;;;;;13.61;30.93;101143.75;4459541;32;33891;-73
2022/12/18 11:39:26;;;;;;;1.27;1.27;;;;;;;12.96;31.27;101140.62;4471338;32;35968;-73
2022/12/18 11:42:11;;;;;;;1.73;1.62;;;;;;;13.87;30.05;101137.75;4471328;32;34470;-74
2022/12/18 11:45:02;;;;;;;4.62;2.85;;;;;;;12.94;30.83;101139.75;4458245;32;33409;-73
2022/12/18 11:47:55;;;;;;;4.37;3.97;;;;;;;13.37;31.02;101144.47;4457417;32;33972;-74
2022/12/18 11:50:28;;;;;;;2.75;2.53;;;;;;;11.89;32.84;101133.38;4457351;32;35812;-74
2022/12/18 11:52:56;;;;;;;5.12;3.58;;;;;;;11.33;33.77;101133.47;4471215;32;34419;-74
2022/12/18 11:55:45;;;;;;;2.85;2.65;;;;;;;13.57;30.94;101136.72;4471532;32;33467;-74
2022/12/18 11:58:23;;;;;;;2.70;2.50;;;;;;;11.96;33.42;101131.75;4471271;32;33964;-74